createdAt,value
2018-01-17T00:00:26.579Z,24.43
2018-01-17T00:02:54.075Z,19.93
2018-01-17T00:05:21.577Z,21.10
2018-01-17T00:07:50.241Z,20.10
2018-01-17T00:10:17.919Z,20.73
2018-01-17T00:12:45.641Z,19.40
2018-01-17T00:15:13.155Z,24.20
2018-01-17T00:17:40.656Z,37.77
2018-01-17T00:20:08.967Z,22.47
2018-01-17T00:22:41.370Z,26.13
2018-01-17T00:25:08.876Z,21.43
2018-01-17T00:27:36.774Z,19.90
2018-01-17T00:30:05.500Z,21.00
2018-01-17T00:32:33.385Z,24.63
2018-01-17T00:35:01.411Z,18.00
2018-01-17T00:37:29.487Z,26.83
2018-01-17T00:39:57.559Z,17.70
2018-01-17T00:42:26.743Z,25.27
2018-01-17T00:44:54.319Z,18.70
2018-01-17T00:47:22.548Z,17.83
2018-01-17T00:49:50.472Z,25.10
2018-01-17T00:52:17.975Z,18.97
2018-01-17T00:54:45.472Z,21.23
2018-01-17T00:57:13.135Z,20.93
2018-01-17T00:59:41.321Z,20.13
2018-01-17T01:02:10.810Z,23.87
2018-01-17T01:04:38.948Z,18.03
2018-01-17T01:07:06.951Z,15.57
2018-01-17T01:09:34.458Z,20.43
2018-01-17T01:12:02.185Z,29.83
2018-01-17T01:14:29.675Z,16.17
2018-01-17T01:16:57.238Z,23.33
2018-01-17T01:19:25.522Z,16.93
2018-01-17T01:21:53.226Z,19.77
2018-01-17T01:24:20.734Z,18.37
2018-01-17T01:26:48.343Z,17.40
2018-01-17T01:29:16.827Z,24.30
2018-01-17T01:31:44.331Z,17.63
2018-01-17T01:34:12.666Z,15.77
2018-01-17T01:36:40.164Z,20.10
2018-01-17T01:39:07.854Z,16.13
2018-01-17T01:41:36.250Z,23.70
2018-01-17T01:44:04.609Z,15.77
2018-01-17T01:46:32.399Z,26.17
2018-01-17T01:49:01.806Z,20.03
2018-01-17T01:51:29.689Z,15.70
2018-01-17T01:53:57.537Z,17.20
2018-01-17T01:56:25.038Z,17.70
2018-01-17T01:58:53.861Z,19.97
2018-01-17T02:01:21.442Z,13.37
2018-01-17T02:03:48.941Z,13.73
2018-01-17T02:06:17.458Z,19.87
2018-01-17T02:08:44.946Z,15.90
2018-01-17T02:11:12.454Z,20.23
2018-01-17T02:13:40.439Z,20.97
2018-01-17T02:16:08.384Z,20.63
2018-01-17T02:18:35.979Z,14.43
2018-01-17T02:21:03.488Z,23.37
2018-01-17T02:23:30.995Z,25.67
2018-01-17T02:25:58.490Z,23.83
2018-01-17T02:28:26.494Z,29.27
2018-01-17T02:30:54.003Z,22.50
2018-01-17T02:33:21.507Z,26.27
2018-01-17T02:35:49.206Z,26.20
2018-01-17T02:38:16.712Z,30.77
2018-01-17T02:40:44.715Z,27.43
2018-01-17T02:43:12.207Z,26.87
2018-01-17T02:45:41.725Z,35.23
2018-01-17T02:48:10.381Z,28.10
2018-01-17T02:50:39.083Z,26.10
2018-01-17T02:53:07.548Z,36.17
2018-01-17T02:55:35.319Z,29.47
2018-01-17T02:58:04.177Z,35.33
2018-01-17T03:00:32.587Z,35.50
2018-01-17T03:03:00.138Z,29.87
2018-01-17T03:05:27.802Z,26.33
2018-01-17T03:07:55.322Z,26.70
2018-01-17T03:10:23.134Z,35.53
2018-01-17T03:12:50.637Z,31.43
2018-01-17T03:15:18.138Z,41.83
2018-01-17T03:17:47.581Z,26.40
2018-01-17T03:20:15.471Z,25.60
2018-01-17T03:22:43.145Z,32.57
2018-01-17T03:25:10.870Z,33.27
2018-01-17T03:27:39.270Z,27.30
2018-01-17T03:30:06.767Z,38.07
2018-01-17T03:32:34.535Z,30.47
2018-01-17T03:35:02.299Z,35.40
2018-01-17T03:37:29.803Z,24.10
2018-01-17T03:39:57.308Z,33.07
2018-01-17T03:42:24.817Z,34.00
2018-01-17T03:44:52.732Z,21.37
2018-01-17T03:47:20.803Z,31.03
2018-01-17T03:49:48.297Z,32.17
2018-01-17T03:52:15.924Z,31.00
2018-01-17T03:54:44.378Z,46.83
2018-01-17T03:57:12.475Z,40.67
2018-01-17T03:59:40.094Z,24.87
2018-01-17T04:02:08.382Z,29.97
2018-01-17T04:04:36.075Z,33.13
2018-01-17T04:07:03.583Z,27.43
2018-01-17T04:09:31.195Z,27.73
2018-01-17T04:11:58.717Z,38.33
2018-01-17T04:14:26.214Z,29.40
2018-01-17T04:16:54.102Z,31.57
2018-01-17T04:19:21.612Z,30.23
2018-01-17T04:21:49.878Z,39.53
2018-01-17T04:24:17.532Z,33.23
2018-01-17T04:26:45.031Z,35.50
2018-01-17T04:29:13.319Z,31.67
2018-01-17T04:31:42.338Z,33.73
2018-01-17T04:34:10.172Z,48.07
2018-01-17T04:36:40.195Z,39.77
2018-01-17T04:39:08.725Z,27.97
2018-01-17T04:41:36.786Z,25.97
2018-01-17T04:44:04.895Z,31.80
2018-01-17T04:46:32.963Z,26.03
2018-01-17T04:49:00.579Z,25.53
2018-01-17T04:51:28.847Z,31.53
2018-01-17T04:53:56.467Z,31.03
2018-01-17T04:56:25.098Z,40.27
2018-01-17T04:58:53.594Z,24.63
2018-01-17T05:01:21.614Z,34.23
2018-01-17T05:03:50.076Z,21.20
2018-01-17T05:06:17.580Z,32.23
2018-01-17T05:08:46.160Z,33.23
2018-01-17T05:11:13.666Z,31.30
2018-01-17T05:13:41.436Z,29.13
2018-01-17T05:16:09.207Z,36.93
2018-01-17T05:18:36.704Z,37.10
2018-01-17T05:21:05.003Z,32.93
2018-01-17T05:23:33.378Z,28.13
2018-01-17T05:26:01.179Z,26.93
2018-01-17T05:28:29.072Z,32.87
2018-01-17T05:30:56.681Z,30.93
2018-01-17T05:33:24.573Z,28.17
2018-01-17T05:35:52.087Z,32.43
2018-01-17T05:38:20.351Z,23.37
2018-01-17T05:40:48.067Z,35.63
2018-01-17T05:43:15.955Z,34.57
2018-01-17T05:45:43.687Z,25.33
2018-01-17T05:48:12.615Z,36.23
2018-01-17T05:50:40.122Z,29.30
2018-01-17T05:53:07.807Z,27.30
2018-01-17T05:55:35.310Z,30.30
2018-01-17T05:58:03.338Z,27.00
2018-01-17T06:00:31.243Z,34.60
2018-01-17T06:02:59.150Z,32.17
2018-01-17T06:05:26.652Z,39.93
2018-01-17T06:07:54.170Z,29.90
2018-01-17T06:10:21.799Z,27.50
2018-01-17T06:12:49.558Z,30.40
2018-01-17T06:15:17.466Z,26.47
2018-01-17T06:17:45.739Z,23.13
2018-01-17T06:20:13.783Z,27.87
2018-01-17T06:22:41.286Z,27.50
2018-01-17T06:25:08.801Z,28.40
2018-01-17T06:27:36.295Z,24.90
2018-01-17T06:30:03.987Z,18.53
2018-01-17T06:32:32.995Z,21.00
2018-01-17T06:35:01.630Z,28.63
2018-01-17T06:37:29.135Z,25.20
2018-01-17T06:39:56.853Z,24.30
2018-01-17T06:42:24.422Z,39.47
2018-01-17T06:44:52.100Z,23.07
2018-01-17T06:47:20.020Z,17.50
2018-01-17T06:49:47.907Z,22.37
2018-01-17T06:52:15.414Z,14.80
2018-01-17T06:54:43.743Z,15.17
2018-01-17T06:57:11.338Z,20.90
2018-01-17T06:59:39.336Z,14.80
2018-01-17T07:02:06.839Z,15.83
2018-01-17T07:04:34.336Z,13.43
2018-01-17T07:07:02.618Z,17.70
2018-01-17T07:09:30.639Z,13.23
2018-01-17T07:11:58.703Z,16.53
2018-01-17T07:14:26.205Z,13.20
2018-01-17T07:16:53.898Z,13.37
2018-01-17T07:19:21.396Z,18.70
2018-01-17T07:21:49.141Z,21.37
2018-01-17T07:24:16.627Z,12.07
2018-01-17T07:26:45.044Z,9.03
2018-01-17T07:29:12.702Z,8.90
2018-01-17T07:31:40.207Z,8.87
2018-01-17T07:34:09.189Z,13.53
2018-01-17T07:36:37.447Z,12.07
2018-01-17T07:39:05.023Z,11.90
2018-01-17T07:41:33.066Z,10.50
2018-01-17T07:44:01.471Z,9.73
2018-01-17T07:46:29.642Z,12.50
2018-01-17T07:48:57.307Z,13.57
2018-01-17T07:51:25.110Z,9.50
2018-01-17T07:53:52.831Z,8.07
2018-01-17T07:56:20.334Z,21.40
2018-01-17T07:58:49.087Z,10.57
2018-01-17T08:01:17.351Z,10.73
2018-01-17T08:03:45.210Z,12.13
2018-01-17T08:06:12.871Z,8.67
2018-01-17T08:08:40.945Z,7.83
2018-01-17T08:11:08.504Z,6.73
2018-01-17T08:13:36.471Z,4.30
2018-01-17T08:16:04.047Z,5.37
2018-01-17T08:18:31.696Z,4.57
2018-01-17T08:20:59.200Z,3.73
2018-01-17T08:23:27.194Z,4.50
2018-01-17T08:25:54.695Z,3.30
2018-01-17T08:28:22.184Z,3.83
2018-01-17T08:30:50.517Z,2.87
2018-01-17T08:33:17.998Z,3.30
2018-01-17T08:35:46.103Z,3.07
2018-01-17T08:38:13.600Z,3.93
2018-01-17T08:40:41.095Z,7.37
2018-01-17T08:43:09.346Z,4.63
2018-01-17T08:45:37.091Z,5.63
2018-01-17T08:48:04.583Z,3.97
2018-01-17T08:50:32.851Z,4.10
2018-01-17T08:53:00.486Z,4.10
2018-01-17T08:55:28.147Z,4.10
2018-01-17T08:57:55.906Z,3.47
2018-01-17T09:00:23.978Z,6.13
2018-01-17T09:02:51.867Z,5.97
2018-01-17T09:05:20.119Z,4.50
2018-01-17T09:07:48.006Z,7.37
2018-01-17T09:10:15.931Z,6.93
2018-01-17T09:12:44.187Z,6.67
2018-01-17T09:15:12.077Z,6.33
2018-01-17T09:17:39.870Z,7.93
2018-01-17T09:20:07.639Z,8.60
2018-01-17T09:22:35.140Z,8.33
2018-01-17T09:25:03.053Z,6.70
2018-01-17T09:27:31.455Z,12.33
2018-01-17T09:29:59.878Z,7.20
2018-01-17T09:32:27.671Z,9.13
2018-01-17T09:34:55.163Z,8.70
2018-01-17T09:37:22.666Z,10.90
2018-01-17T09:39:50.154Z,11.37
2018-01-17T09:42:18.053Z,7.27
2018-01-17T09:44:45.546Z,6.17
2018-01-17T09:47:13.047Z,8.10
2018-01-17T09:49:41.377Z,15.60
2018-01-17T09:52:09.163Z,13.10
2018-01-17T09:54:36.666Z,4.37
2018-01-17T09:57:04.611Z,15.50
2018-01-17T09:59:32.455Z,10.73
2018-01-17T10:02:00.497Z,22.47
2018-01-17T10:04:28.007Z,10.70
2018-01-17T10:06:55.500Z,8.70
2018-01-17T10:09:23.206Z,5.30
2018-01-17T10:11:50.695Z,6.20
2018-01-17T10:14:19.051Z,10.43
2018-01-17T10:16:46.802Z,8.20
2018-01-17T10:19:14.303Z,5.03
2018-01-17T10:21:42.027Z,5.23
2018-01-17T10:24:09.919Z,12.13
2018-01-17T10:26:37.820Z,18.13
2018-01-17T10:29:05.312Z,9.50
2018-01-17T10:31:32.798Z,5.43
2018-01-17T10:34:01.946Z,4.60
2018-01-17T10:36:29.526Z,6.70
2018-01-17T10:38:57.299Z,7.40
2018-01-17T10:41:25.059Z,6.40
2018-01-17T10:43:53.431Z,7.43
2018-01-17T10:46:20.928Z,9.30
2018-01-17T10:48:48.451Z,5.40
2018-01-17T10:51:16.855Z,7.83
2018-01-17T10:53:44.746Z,4.13
2018-01-17T10:56:12.554Z,6.67
2018-01-17T10:58:40.267Z,4.30
2018-01-17T11:01:07.803Z,12.00
2018-01-17T11:03:35.303Z,2.60
2018-01-17T11:06:02.999Z,17.80
2018-01-17T11:08:30.482Z,5.80
2018-01-17T11:10:58.523Z,10.83
2018-01-17T11:13:27.823Z,5.87
2018-01-17T11:15:56.203Z,5.70
2018-01-17T11:18:24.067Z,16.33
2018-01-17T11:20:51.729Z,14.10
2018-01-17T11:23:19.495Z,9.50
2018-01-17T11:25:46.995Z,11.83
2018-01-17T11:28:14.674Z,6.50
2018-01-17T11:30:42.690Z,2.73
2018-01-17T11:33:10.199Z,12.50
2018-01-17T11:35:38.306Z,5.50
2018-01-17T11:38:05.798Z,7.57
2018-01-17T11:40:33.504Z,11.50
2018-01-17T11:43:01.237Z,3.00
2018-01-17T11:45:29.675Z,20.13
2018-01-17T11:47:57.176Z,17.03
2018-01-17T11:50:24.679Z,11.23
2018-01-17T11:52:52.279Z,7.87
2018-01-17T11:55:20.730Z,12.33
2018-01-17T11:57:48.911Z,5.27
2018-01-17T12:00:16.564Z,10.97
2018-01-17T12:02:44.598Z,20.83
2018-01-17T12:05:12.100Z,16.33
2018-01-17T12:07:40.089Z,11.53
2018-01-17T12:10:07.562Z,8.33
2018-01-17T12:12:35.274Z,10.27
2018-01-17T12:15:02.838Z,4.57
2018-01-17T12:17:30.885Z,13.93
2018-01-17T12:19:58.490Z,6.33
2018-01-17T12:22:26.122Z,7.97
2018-01-17T12:24:53.886Z,7.43
2018-01-17T12:27:21.386Z,9.33
2018-01-17T12:29:49.071Z,5.27
2018-01-17T12:32:16.563Z,2.53
2018-01-17T12:34:44.451Z,9.93
2018-01-17T12:37:11.958Z,4.97
2018-01-17T12:39:39.454Z,2.40
2018-01-17T12:42:08.203Z,9.43
2018-01-17T12:44:35.700Z,4.77
2018-01-17T12:47:03.208Z,4.47
2018-01-17T12:49:30.694Z,2.17
2018-01-17T12:51:59.518Z,4.10
2018-01-17T12:54:27.975Z,3.47
2018-01-17T12:56:55.467Z,10.67
2018-01-17T12:59:22.967Z,6.50
2018-01-17T13:01:51.806Z,3.83
2018-01-17T13:04:19.335Z,5.23
2018-01-17T13:06:46.848Z,4.87
2018-01-17T13:09:15.782Z,1.60
2018-01-17T13:11:43.279Z,12.63
2018-01-17T13:14:10.787Z,4.93
2018-01-17T13:16:38.412Z,4.63
2018-01-17T13:19:05.915Z,6.23
2018-01-17T13:21:33.410Z,3.03
2018-01-17T13:24:01.013Z,8.27
2018-01-17T13:26:28.579Z,1.87
2018-01-17T13:28:56.642Z,7.07
2018-01-17T13:31:24.182Z,7.03
2018-01-17T13:33:51.759Z,4.20
2018-01-17T13:36:20.548Z,9.77
2018-01-17T13:38:49.566Z,2.47
2018-01-17T13:41:17.061Z,5.40
2018-01-17T13:43:44.616Z,7.43
2018-01-17T13:46:12.066Z,6.40
2018-01-17T13:48:39.661Z,8.60
2018-01-17T13:51:07.151Z,3.97
2018-01-17T13:53:35.218Z,6.27
2018-01-17T13:56:02.726Z,11.37
2018-01-17T13:58:31.036Z,4.50
2018-01-17T14:00:59.128Z,5.33
2018-01-17T14:03:26.615Z,5.80
2018-01-17T14:05:54.348Z,5.83
2018-01-17T14:08:22.793Z,12.50
2018-01-17T14:10:50.486Z,8.60
2018-01-17T14:13:18.559Z,5.90
2018-01-17T14:15:46.631Z,7.20
2018-01-17T14:18:14.187Z,13.43
2018-01-17T14:20:42.135Z,16.23
2018-01-17T14:23:09.633Z,8.10
2018-01-17T14:25:38.915Z,12.00
2018-01-17T14:28:06.861Z,6.93
2018-01-17T14:30:34.444Z,7.03
2018-01-17T14:33:02.207Z,5.63
2018-01-17T14:35:29.828Z,9.80
2018-01-17T14:37:57.890Z,7.90
2018-01-17T14:40:26.156Z,10.27
2018-01-17T14:42:59.511Z,16.37
2018-01-17T14:45:27.163Z,5.27
2018-01-17T14:47:55.215Z,9.83
2018-01-17T14:50:22.711Z,14.53
2018-01-17T14:52:50.458Z,5.73
2018-01-17T14:55:18.543Z,8.43
2018-01-17T14:57:46.566Z,6.50
2018-01-17T15:00:15.483Z,6.83
2018-01-17T15:02:42.993Z,9.83
2018-01-17T15:05:10.895Z,3.37
2018-01-17T15:07:38.401Z,4.80
2018-01-17T15:10:06.042Z,1.97
2018-01-17T15:12:34.302Z,4.90
2018-01-17T15:15:02.183Z,3.77
2018-01-17T15:17:29.684Z,2.80
2018-01-17T15:19:58.179Z,2.90
2018-01-17T15:22:25.781Z,5.80
2018-01-17T15:24:53.667Z,4.80
2018-01-17T15:27:21.830Z,3.70
2018-01-17T15:29:49.678Z,7.33
2018-01-17T15:32:17.182Z,4.27
2018-01-17T15:34:45.079Z,5.43
2018-01-17T15:37:12.588Z,9.33
2018-01-17T15:39:40.735Z,3.50
2018-01-17T15:42:08.228Z,1.93
2018-01-17T15:44:35.979Z,8.80
2018-01-17T15:47:03.527Z,3.57
2018-01-17T15:49:31.604Z,4.03
2018-01-17T15:51:59.118Z,4.93
2018-01-17T15:54:26.699Z,2.90
2018-01-17T15:56:54.193Z,6.73
2018-01-17T15:59:22.199Z,5.20
2018-01-17T16:01:50.502Z,5.83
2018-01-17T16:04:18.015Z,12.20
2018-01-17T16:06:45.967Z,7.33
2018-01-17T16:09:14.231Z,9.83
2018-01-17T16:11:42.241Z,10.90
2018-01-17T16:14:09.740Z,5.37
2018-01-17T16:16:37.497Z,11.10
2018-01-17T16:19:05.613Z,4.90
2018-01-17T16:21:34.276Z,4.13
2018-01-17T16:24:02.654Z,5.73
2018-01-17T16:26:30.284Z,7.20
2018-01-17T16:28:58.572Z,6.50
2018-01-17T16:31:26.544Z,6.63
2018-01-17T16:33:54.114Z,8.30
2018-01-17T16:36:22.363Z,11.10
2018-01-17T16:38:50.647Z,7.50
2018-01-17T16:41:18.815Z,13.83
2018-01-17T16:43:46.898Z,5.27
2018-01-17T16:46:14.403Z,7.70
2018-01-17T16:48:42.243Z,2.20
2018-01-17T16:51:09.879Z,8.70
2018-01-17T16:53:37.433Z,9.97
2018-01-17T16:56:05.090Z,9.27
2018-01-17T16:58:33.158Z,15.10
2018-01-17T17:01:01.532Z,4.10
2018-01-17T17:03:29.130Z,4.97
2018-01-17T17:05:56.635Z,4.60
2018-01-17T17:08:24.254Z,3.40
2018-01-17T17:10:53.215Z,3.30
2018-01-17T17:13:21.002Z,4.27
2018-01-17T17:15:51.241Z,5.80
2018-01-17T17:18:18.763Z,5.60
2018-01-17T17:20:47.294Z,6.40
2018-01-17T17:23:14.811Z,6.20
2018-01-17T17:25:42.353Z,11.60
2018-01-17T17:28:10.331Z,3.70
2018-01-17T17:30:37.920Z,4.53
2018-01-17T17:33:05.894Z,9.13
2018-01-17T17:35:33.810Z,6.63
2018-01-17T17:38:01.734Z,9.57
2018-01-17T17:40:29.293Z,10.90
2018-01-17T17:42:56.948Z,6.37
2018-01-17T17:45:24.444Z,8.10
2018-01-17T17:47:51.944Z,6.50
2018-01-17T17:50:20.495Z,3.60
2018-01-17T17:52:48.753Z,9.07
2018-01-17T17:55:16.239Z,5.93
2018-01-17T17:57:45.253Z,8.03
2018-01-17T18:00:12.757Z,11.63
2018-01-17T18:02:41.251Z,6.27
2018-01-17T18:05:09.883Z,14.97
2018-01-17T18:07:38.152Z,8.97
2018-01-17T18:10:06.414Z,7.20
2018-01-17T18:12:34.012Z,6.57
2018-01-17T18:15:01.512Z,8.77
2018-01-17T18:17:29.130Z,7.30
2018-01-17T18:19:57.453Z,9.30
2018-01-17T18:22:25.687Z,12.43
2018-01-17T18:24:53.311Z,4.90
2018-01-17T18:27:20.922Z,7.90
2018-01-17T18:29:49.136Z,5.40
2018-01-17T18:32:16.707Z,4.70
2018-01-17T18:34:45.242Z,6.67
2018-01-17T18:37:12.741Z,6.63
2018-01-17T18:39:40.359Z,8.50
2018-01-17T18:42:08.255Z,8.27
2018-01-17T18:44:35.746Z,12.30
2018-01-17T18:47:04.075Z,9.73
2018-01-17T18:49:31.580Z,8.17
2018-01-17T18:52:00.115Z,13.03
2018-01-17T18:54:28.248Z,6.30
2018-01-17T18:56:56.147Z,4.53
2018-01-17T18:59:24.616Z,4.23
2018-01-17T19:01:52.514Z,12.50
2018-01-17T19:04:20.015Z,6.60
2018-01-17T19:06:48.655Z,4.13
2018-01-17T19:09:16.982Z,11.13
2018-01-17T19:11:44.475Z,6.10
2018-01-17T19:14:12.635Z,8.77
2018-01-17T19:16:41.486Z,15.63
2018-01-17T19:19:10.624Z,16.50
2018-01-17T19:21:38.895Z,6.63
2018-01-17T19:24:06.799Z,4.67
2018-01-17T19:26:34.295Z,6.90
2018-01-17T19:29:02.597Z,4.17
2018-01-17T19:31:31.095Z,6.57
2018-01-17T19:33:58.596Z,17.13
2018-01-17T19:36:26.855Z,8.10
2018-01-17T19:38:54.362Z,14.17
2018-01-17T19:41:22.167Z,12.67
2018-01-17T19:43:49.676Z,4.80
2018-01-17T19:46:17.943Z,9.30
2018-01-17T19:48:47.056Z,4.43
2018-01-17T19:51:15.235Z,6.60
2018-01-17T19:53:43.737Z,12.17
2018-01-17T19:56:11.734Z,13.53
2018-01-17T19:58:39.235Z,9.87
2018-01-17T20:01:07.141Z,6.30
2018-01-17T20:03:34.787Z,12.83
2018-01-17T20:06:02.278Z,15.67
2018-01-17T20:08:30.018Z,22.43
2018-01-17T20:10:57.513Z,13.30
2018-01-17T20:13:25.191Z,11.40
2018-01-17T20:15:52.698Z,4.63
2018-01-17T20:18:20.448Z,8.67
2018-01-17T20:20:48.718Z,15.20
2018-01-17T20:23:16.223Z,8.73
2018-01-17T20:25:43.723Z,5.63
2018-01-17T20:28:11.512Z,9.03
2018-01-17T20:30:39.016Z,8.07
2018-01-17T20:33:07.041Z,3.30
2018-01-17T20:35:35.077Z,5.27
2018-01-17T20:38:03.489Z,4.73
2018-01-17T20:40:30.978Z,4.30
2018-01-17T20:42:58.500Z,7.83
2018-01-17T20:45:27.268Z,30.27
2018-01-17T20:47:54.772Z,13.73
2018-01-17T20:50:23.041Z,13.70
2018-01-17T20:52:50.684Z,8.47
2018-01-17T20:55:20.064Z,10.77
2018-01-17T20:57:48.943Z,10.90
2018-01-17T21:00:16.727Z,7.60
2018-01-17T21:02:44.494Z,7.20
2018-01-17T21:05:11.994Z,5.10
2018-01-17T21:07:39.498Z,19.20
2018-01-17T21:10:08.295Z,15.00
2018-01-17T21:12:35.832Z,18.47
2018-01-17T21:15:03.776Z,10.80
2018-01-17T21:17:32.039Z,12.37
2018-01-17T21:20:00.923Z,12.33
2018-01-17T21:22:28.436Z,10.50
2018-01-17T21:24:55.942Z,18.87
2018-01-17T21:27:24.247Z,14.60
2018-01-17T21:29:52.595Z,16.07
2018-01-17T21:32:21.403Z,12.80
2018-01-17T21:34:49.227Z,11.00
2018-01-17T21:37:17.516Z,13.93
2018-01-17T21:39:44.997Z,16.00
2018-01-17T21:42:19.046Z,19.10
2018-01-17T21:44:52.983Z,10.40
2018-01-17T21:47:21.414Z,13.27
2018-01-17T21:49:50.462Z,10.43
2018-01-17T21:52:17.952Z,9.07
2018-01-17T21:54:45.501Z,9.67
2018-01-17T21:57:13.878Z,5.77
2018-01-17T21:59:42.767Z,8.17
2018-01-17T22:02:10.256Z,14.90
2018-01-17T22:04:37.970Z,6.37
2018-01-17T22:07:05.471Z,6.27
2018-01-17T22:09:33.088Z,15.90
2018-01-17T22:12:00.574Z,8.43
2018-01-17T22:14:28.082Z,14.77
2018-01-17T22:16:55.566Z,10.77
2018-01-17T22:19:23.893Z,12.70
2018-01-17T22:21:51.718Z,6.13
2018-01-17T22:24:19.755Z,17.33
2018-01-17T22:26:47.643Z,9.27
2018-01-17T22:29:16.180Z,10.97
2018-01-17T22:31:44.500Z,10.80
2018-01-17T22:34:12.395Z,13.57
2018-01-17T22:36:39.911Z,14.83
2018-01-17T22:39:08.187Z,12.13
2018-01-17T22:41:35.921Z,9.23
2018-01-17T22:44:04.305Z,8.10
2018-01-17T22:46:32.204Z,7.13
2018-01-17T22:49:00.142Z,15.60
2018-01-17T22:51:27.627Z,7.73
2018-01-17T22:53:55.672Z,8.90
2018-01-17T22:56:23.163Z,9.83
2018-01-17T22:58:50.657Z,9.13
2018-01-17T23:01:18.911Z,5.37
2018-01-17T23:03:46.408Z,4.30
2018-01-17T23:06:14.183Z,6.47
2018-01-17T23:08:41.919Z,6.23
2018-01-17T23:11:09.406Z,4.63
2018-01-17T23:13:37.157Z,4.47
2018-01-17T23:16:04.931Z,10.23
2018-01-17T23:18:32.471Z,7.43
2018-01-17T23:21:00.759Z,4.77
2018-01-17T23:23:28.521Z,4.20
2018-01-17T23:25:56.422Z,3.03
2018-01-17T23:28:24.043Z,4.70
2018-01-17T23:30:51.946Z,3.57
2018-01-17T23:33:19.573Z,3.87
2018-01-17T23:35:47.076Z,4.90
2018-01-17T23:38:14.884Z,11.33
2018-01-17T23:40:43.512Z,5.13
2018-01-17T23:43:11.867Z,2.00
2018-01-17T23:45:39.367Z,11.83
2018-01-17T23:48:07.083Z,0.90
2018-01-17T23:50:34.580Z,12.23
2018-01-17T23:53:02.080Z,6.73
2018-01-17T23:55:29.758Z,7.90
2018-01-17T23:57:57.523Z,5.20
